createdAt,value
2017-07-25T00:01:53.167Z,12.00
2017-07-25T00:04:20.661Z,12.10
2017-07-25T00:06:48.938Z,12.00
2017-07-25T00:09:16.442Z,12.00
2017-07-25T00:11:43.979Z,12.00
2017-07-25T00:14:11.482Z,12.00
2017-07-25T00:16:38.978Z,12.00
2017-07-25T00:19:06.491Z,12.00
2017-07-25T00:21:33.993Z,12.00
2017-07-25T00:24:01.510Z,12.00
2017-07-25T00:26:29.003Z,11.90
2017-07-25T00:28:56.526Z,12.00
2017-07-25T00:31:24.027Z,11.90
2017-07-25T00:33:51.552Z,11.90
2017-07-25T00:36:19.059Z,11.90
2017-07-25T00:38:46.562Z,11.90
2017-07-25T00:41:14.073Z,11.80
2017-07-25T00:43:41.574Z,11.80
2017-07-25T00:46:09.083Z,11.80
2017-07-25T00:48:36.578Z,11.70
2017-07-25T00:51:04.096Z,11.70
2017-07-25T00:53:31.594Z,11.60
2017-07-25T00:55:59.111Z,11.60
2017-07-25T00:58:26.611Z,11.60
2017-07-25T01:00:54.127Z,11.60
2017-07-25T01:03:21.635Z,11.60
2017-07-25T01:05:49.131Z,11.70
2017-07-25T01:08:16.643Z,11.60
2017-07-25T01:10:44.150Z,11.60
2017-07-25T01:13:11.666Z,11.60
2017-07-25T01:15:39.167Z,11.60
2017-07-25T01:18:06.684Z,11.70
2017-07-25T01:20:34.183Z,11.80
2017-07-25T01:23:01.711Z,11.80
2017-07-25T01:25:29.210Z,11.80
2017-07-25T01:27:56.720Z,11.80
2017-07-25T01:30:24.234Z,11.80
2017-07-25T01:32:51.739Z,11.80
2017-07-25T01:35:19.254Z,11.80
2017-07-25T01:37:46.752Z,11.80
2017-07-25T01:40:14.264Z,11.80
2017-07-25T01:42:41.762Z,11.80
2017-07-25T01:45:09.295Z,11.80
2017-07-25T01:47:36.791Z,11.80
2017-07-25T01:50:04.298Z,11.80
2017-07-25T01:52:31.816Z,11.70
2017-07-25T01:55:00.082Z,11.60
2017-07-25T01:57:27.594Z,11.70
2017-07-25T01:59:55.086Z,11.70
2017-07-25T02:02:22.606Z,11.70
2017-07-25T02:04:50.111Z,11.70
2017-07-25T02:07:17.642Z,11.70
2017-07-25T02:09:45.141Z,11.70
2017-07-25T02:12:13.415Z,11.50
2017-07-25T02:14:41.703Z,11.60
2017-07-25T02:17:09.971Z,11.50
2017-07-25T02:19:38.250Z,11.50
2017-07-25T02:22:06.524Z,11.50
2017-07-25T02:24:34.806Z,11.50
2017-07-25T02:27:03.067Z,11.50
2017-07-25T02:29:30.574Z,11.50
2017-07-25T02:31:58.077Z,11.50
2017-07-25T02:34:25.619Z,11.40
2017-07-25T02:36:53.113Z,11.50
2017-07-25T02:39:21.378Z,11.40
2017-07-25T02:41:49.664Z,11.40
2017-07-25T02:44:17.931Z,11.40
2017-07-25T02:46:46.214Z,11.40
2017-07-25T02:49:14.475Z,11.40
2017-07-25T02:51:41.994Z,11.40
2017-07-25T02:54:09.486Z,11.40
2017-07-25T02:56:37.004Z,11.40
2017-07-25T02:59:04.498Z,11.30
2017-07-25T03:01:31.999Z,11.30
2017-07-25T03:03:59.527Z,11.30
2017-07-25T03:06:27.803Z,11.30
2017-07-25T03:08:55.327Z,11.30
2017-07-25T03:11:22.822Z,11.30
2017-07-25T03:13:50.332Z,11.30
2017-07-25T03:16:17.839Z,11.30
2017-07-25T03:18:46.118Z,11.30
2017-07-25T03:21:14.387Z,11.30
2017-07-25T03:24:02.649Z,11.20
2017-07-25T03:26:30.150Z,11.30
2017-07-25T03:28:57.948Z,11.30
2017-07-25T03:31:25.463Z,11.30
2017-07-25T03:33:52.962Z,11.30
2017-07-25T03:36:20.474Z,11.20
2017-07-25T03:38:47.980Z,11.30
2017-07-25T03:41:15.490Z,11.30
2017-07-25T03:43:42.994Z,11.30
2017-07-25T03:46:10.530Z,11.20
2017-07-25T03:48:38.026Z,11.20
2017-07-25T03:51:06.299Z,11.30
2017-07-25T03:53:34.582Z,11.30
2017-07-25T03:56:02.082Z,11.30
2017-07-25T03:58:29.599Z,11.30
2017-07-25T04:00:57.108Z,11.30
2017-07-25T04:03:24.639Z,11.30
2017-07-25T04:05:52.151Z,11.30
2017-07-25T04:08:19.688Z,11.30
2017-07-25T04:10:47.191Z,11.40
2017-07-25T04:13:15.457Z,11.40
2017-07-25T04:15:43.739Z,11.40
2017-07-25T04:18:11.998Z,11.30
2017-07-25T04:20:39.511Z,11.30
2017-07-25T04:23:07.012Z,11.40
2017-07-25T04:25:34.534Z,11.40
2017-07-25T04:28:02.030Z,11.50
2017-07-25T04:30:29.566Z,11.50
2017-07-25T04:32:57.072Z,11.50
2017-07-25T04:35:24.578Z,11.50
2017-07-25T04:37:52.090Z,11.40
2017-07-25T04:40:20.351Z,11.50
2017-07-25T04:42:48.634Z,11.50
2017-07-25T04:45:16.139Z,11.50
2017-07-25T04:47:43.650Z,11.60
2017-07-25T04:50:11.151Z,11.50
2017-07-25T04:52:38.655Z,11.60
2017-07-25T04:55:06.175Z,11.50
2017-07-25T04:57:33.679Z,11.60
2017-07-25T05:00:01.203Z,11.70
2017-07-25T05:02:28.699Z,11.60
2017-07-25T05:04:56.227Z,11.60
2017-07-25T05:07:23.731Z,11.50
2017-07-25T05:09:51.232Z,11.40
2017-07-25T05:12:18.750Z,11.30
2017-07-25T05:14:46.247Z,11.20
2017-07-25T05:17:13.764Z,11.30
2017-07-25T05:19:41.275Z,11.20
2017-07-25T05:22:08.811Z,11.20
2017-07-25T05:24:36.310Z,11.10
2017-07-25T05:27:03.810Z,11.20
2017-07-25T05:29:31.331Z,11.20
2017-07-25T05:31:59.601Z,11.20
2017-07-25T05:34:27.110Z,11.20
2017-07-25T05:36:54.611Z,11.30
2017-07-25T05:39:22.126Z,11.20
2017-07-25T05:41:49.624Z,11.30
2017-07-25T05:44:17.136Z,11.30
2017-07-25T05:46:44.680Z,11.40
2017-07-25T05:49:12.215Z,11.40
2017-07-25T05:51:40.579Z,11.40
2017-07-25T05:54:08.074Z,11.40
2017-07-25T05:56:35.598Z,11.40
2017-07-25T05:59:03.113Z,11.50
2017-07-25T06:01:30.614Z,11.50
2017-07-25T06:03:58.137Z,11.60
2017-07-25T06:06:25.640Z,11.60
2017-07-25T06:08:53.150Z,11.70
2017-07-25T06:11:20.656Z,11.80
2017-07-25T06:13:48.195Z,11.80
2017-07-25T06:16:15.687Z,11.80
2017-07-25T06:18:43.191Z,11.80
2017-07-25T06:21:10.708Z,11.90
2017-07-25T06:23:38.208Z,12.00
2017-07-25T06:26:05.732Z,12.10
2017-07-25T06:28:33.227Z,12.20
2017-07-25T06:31:01.055Z,12.30
2017-07-25T06:33:28.551Z,12.30
2017-07-25T06:35:56.051Z,12.30
2017-07-25T06:38:24.335Z,12.50
2017-07-25T06:40:52.594Z,12.50
2017-07-25T06:43:20.874Z,12.50
2017-07-25T06:45:49.139Z,12.50
2017-07-25T06:48:16.651Z,12.50
2017-07-25T06:50:44.147Z,12.40
2017-07-25T06:53:11.637Z,12.40
2017-07-25T06:55:39.915Z,12.60
2017-07-25T06:58:07.419Z,12.60
2017-07-25T07:00:34.939Z,12.60
2017-07-25T07:03:02.433Z,12.60
2017-07-25T07:05:29.945Z,12.70
2017-07-25T07:07:57.654Z,12.70
2017-07-25T07:10:25.155Z,12.80
2017-07-25T07:12:53.447Z,12.70
2017-07-25T07:15:20.944Z,12.70
2017-07-25T07:17:48.466Z,12.80
2017-07-25T07:20:15.971Z,12.80
2017-07-25T07:22:43.486Z,12.80
2017-07-25T07:25:10.992Z,12.80
2017-07-25T07:27:38.486Z,12.80
2017-07-25T07:30:06.766Z,12.90
2017-07-25T07:32:34.275Z,12.80
2017-07-25T07:35:01.791Z,13.00
2017-07-25T07:37:29.285Z,13.10
2017-07-25T07:39:57.030Z,13.10
2017-07-25T07:42:24.566Z,13.20
2017-07-25T07:44:52.063Z,13.20
2017-07-25T07:47:19.570Z,13.20
2017-07-25T07:49:47.830Z,13.40
2017-07-25T07:52:15.794Z,13.40
2017-07-25T07:54:43.334Z,13.50
2017-07-25T07:57:10.855Z,13.60
2017-07-25T07:59:38.362Z,13.90
2017-07-25T08:02:05.865Z,14.40
2017-07-25T08:04:33.390Z,14.40
2017-07-25T08:07:00.883Z,14.40
2017-07-25T08:09:28.394Z,14.20
2017-07-25T08:11:55.894Z,14.20
2017-07-25T08:14:23.415Z,14.30
2017-07-25T08:16:50.919Z,14.30
2017-07-25T08:19:18.423Z,14.50
2017-07-25T08:21:45.943Z,14.70
2017-07-25T08:24:13.446Z,15.00
2017-07-25T08:26:40.964Z,15.10
2017-07-25T08:29:08.471Z,15.20
2017-07-25T08:31:35.995Z,15.20
2017-07-25T08:34:03.496Z,15.20
2017-07-25T08:36:31.759Z,15.20
2017-07-25T08:38:59.278Z,15.20
2017-07-25T08:41:26.782Z,15.10
2017-07-25T08:43:54.304Z,15.20
2017-07-25T08:46:21.806Z,15.20
2017-07-25T08:48:50.095Z,15.30
2017-07-25T08:51:17.591Z,15.30
2017-07-25T08:53:45.111Z,15.40
2017-07-25T08:56:12.606Z,15.30
2017-07-25T08:58:40.122Z,15.70
2017-07-25T09:01:07.623Z,15.60
2017-07-25T09:03:35.167Z,15.50
2017-07-25T09:06:02.663Z,15.30
2017-07-25T09:08:30.174Z,15.00
2017-07-25T09:10:57.690Z,14.90
2017-07-25T09:13:25.191Z,15.00
2017-07-25T09:15:52.711Z,15.20
2017-07-25T09:18:20.206Z,15.30
2017-07-25T09:20:47.714Z,15.20
2017-07-25T09:23:29.814Z,15.20
2017-07-25T09:25:57.343Z,15.20
2017-07-25T09:28:24.843Z,15.10
2017-07-25T09:30:52.386Z,15.00
2017-07-25T09:33:19.878Z,15.10
2017-07-25T09:35:48.144Z,15.10
2017-07-25T09:38:16.422Z,15.30
2017-07-25T09:40:44.681Z,15.60
2017-07-25T09:43:12.199Z,15.60
2017-07-25T09:45:39.690Z,15.70
2017-07-25T09:48:07.207Z,15.90
2017-07-25T09:50:34.707Z,16.10
2017-07-25T09:53:02.240Z,16.00
2017-07-25T09:55:29.739Z,15.90
2017-07-25T09:57:57.243Z,15.90
2017-07-25T10:00:24.763Z,15.80
2017-07-25T10:02:52.272Z,15.60
2017-07-25T10:05:19.791Z,15.30
2017-07-25T10:07:47.291Z,15.10
2017-07-25T10:10:14.807Z,14.60
2017-07-25T10:12:43.095Z,14.30
2017-07-25T10:15:10.611Z,14.00
2017-07-25T10:17:38.111Z,14.20
2017-07-25T10:20:05.631Z,14.90
2017-07-25T10:22:33.135Z,15.40
2017-07-25T10:25:00.640Z,15.80
2017-07-25T10:27:28.154Z,15.10
2017-07-25T10:29:56.447Z,14.90
2017-07-25T10:32:23.959Z,14.80
2017-07-25T10:34:52.227Z,15.20
2017-07-25T10:37:20.503Z,15.20
2017-07-25T10:39:48.773Z,15.00
2017-07-25T10:42:16.366Z,15.00
2017-07-25T10:44:43.859Z,14.90
2017-07-25T10:47:11.359Z,14.60
2017-07-25T10:49:39.661Z,14.30
2017-07-25T10:52:07.158Z,14.30
2017-07-25T10:54:34.664Z,13.70
2017-07-25T10:57:02.159Z,13.30
2017-07-25T10:59:29.670Z,13.20
2017-07-25T11:01:57.930Z,13.20
2017-07-25T11:04:25.463Z,13.20
2017-07-25T11:06:52.962Z,13.30
2017-07-25T11:09:21.226Z,13.20
2017-07-25T11:11:48.738Z,13.20
2017-07-25T11:14:16.238Z,13.20
2017-07-25T11:16:43.746Z,13.10
2017-07-25T11:19:11.234Z,12.80
2017-07-25T11:21:38.743Z,12.70
2017-07-25T11:24:06.245Z,12.50
2017-07-25T11:26:33.772Z,12.40
2017-07-25T11:29:01.266Z,12.30
2017-07-25T11:31:28.783Z,12.40
2017-07-25T11:33:56.274Z,12.40
2017-07-25T11:36:23.776Z,12.40
2017-07-25T11:38:52.054Z,12.80
2017-07-25T11:41:20.321Z,13.00
2017-07-25T11:43:48.606Z,12.90
2017-07-25T11:46:16.102Z,12.80
2017-07-25T11:48:43.610Z,12.80
2017-07-25T11:51:11.103Z,12.80
2017-07-25T11:53:38.622Z,12.70
2017-07-25T11:56:06.883Z,12.70
2017-07-25T11:58:34.409Z,12.60
2017-07-25T12:01:01.907Z,12.70
2017-07-25T12:03:29.406Z,12.80
2017-07-25T12:05:56.920Z,13.00
2017-07-25T12:08:24.414Z,13.10
2017-07-25T12:10:51.922Z,13.10
2017-07-25T12:13:19.416Z,13.00
2017-07-25T12:15:47.690Z,13.10
2017-07-25T12:18:16.030Z,13.10
2017-07-25T12:20:55.359Z,13.30
2017-07-25T12:23:22.864Z,13.30
2017-07-25T12:25:50.387Z,13.30
2017-07-25T12:28:17.890Z,13.20
2017-07-25T12:30:45.386Z,13.30
2017-07-25T12:33:12.894Z,13.30
2017-07-25T12:35:40.387Z,13.30
2017-07-25T12:38:07.895Z,13.20
2017-07-25T12:40:35.390Z,13.00
2017-07-25T12:43:02.904Z,13.20
2017-07-25T12:45:30.403Z,13.40
2017-07-25T12:47:57.920Z,13.80
2017-07-25T12:50:25.431Z,14.10
2017-07-25T12:52:52.955Z,14.40
2017-07-25T12:55:21.219Z,14.50
2017-07-25T12:57:48.710Z,14.50
2017-07-25T13:00:16.224Z,14.70
2017-07-25T13:02:55.663Z,14.90
2017-07-25T13:05:23.175Z,15.20
2017-07-25T13:07:50.671Z,15.30
2017-07-25T13:10:18.186Z,15.30
2017-07-25T13:12:45.687Z,15.10
2017-07-25T13:15:13.198Z,14.60
2017-07-25T13:17:40.704Z,14.60
2017-07-25T13:20:08.215Z,14.50
2017-07-25T13:22:35.707Z,14.60
2017-07-25T13:25:03.247Z,14.60
2017-07-25T13:27:30.742Z,14.30
2017-07-25T13:29:58.234Z,14.20
2017-07-25T13:32:25.748Z,14.10
2017-07-25T13:34:53.246Z,14.00
2017-07-25T13:37:21.534Z,13.80
2017-07-25T13:39:49.026Z,13.80
2017-07-25T13:42:16.540Z,13.90
2017-07-25T13:44:44.051Z,14.00
2017-07-25T13:47:11.576Z,14.00
2017-07-25T13:49:39.075Z,14.10
2017-07-25T13:52:06.575Z,14.20
2017-07-25T13:54:34.093Z,14.30
2017-07-25T13:57:01.597Z,14.30
2017-07-25T13:59:29.115Z,14.20
2017-07-25T14:01:56.617Z,14.00
2017-07-25T14:04:24.139Z,13.90
2017-07-25T14:06:51.639Z,14.10
2017-07-25T14:09:19.155Z,14.30
2017-07-25T14:11:46.652Z,14.60
2017-07-25T14:14:14.170Z,14.90
2017-07-25T14:16:41.662Z,14.90
2017-07-25T14:19:09.154Z,14.80
2017-07-25T14:21:36.674Z,14.70
2017-07-25T14:24:04.171Z,14.80
2017-07-25T14:26:31.687Z,14.70
2017-07-25T14:28:59.186Z,14.50
2017-07-25T14:31:26.703Z,14.50
2017-07-25T14:33:54.195Z,14.30
2017-07-25T14:36:21.706Z,14.10
2017-07-25T14:38:49.977Z,14.10
2017-07-25T14:41:18.261Z,14.10
2017-07-25T14:43:46.523Z,14.10
2017-07-25T14:46:14.042Z,14.10
2017-07-25T14:48:41.534Z,14.40
2017-07-25T14:51:09.055Z,14.10
2017-07-25T14:53:36.554Z,14.10
2017-07-25T14:56:04.814Z,13.70
2017-07-25T14:58:32.322Z,13.70
2017-07-25T15:00:59.824Z,13.80
2017-07-25T15:03:27.336Z,13.80
2017-07-25T15:05:54.827Z,13.60
2017-07-25T15:08:22.343Z,13.50
2017-07-25T15:10:49.839Z,13.30
2017-07-25T15:13:17.350Z,13.30
2017-07-25T15:15:45.620Z,13.20
2017-07-25T15:18:13.904Z,13.20
2017-07-25T15:20:41.405Z,13.10
2017-07-25T15:23:08.939Z,13.20
2017-07-25T15:25:36.447Z,13.00
2017-07-25T15:28:03.942Z,12.90
2017-07-25T15:30:31.466Z,12.70
2017-07-25T15:32:58.965Z,12.50
2017-07-25T15:35:26.483Z,12.60
2017-07-25T15:37:53.991Z,12.70
2017-07-25T15:40:21.500Z,12.70
2017-07-25T15:42:48.990Z,12.80
2017-07-25T15:45:16.510Z,12.90
2017-07-25T15:47:44.003Z,12.90
2017-07-25T15:50:11.511Z,12.90
2017-07-25T15:52:39.006Z,12.80
2017-07-25T15:55:07.299Z,12.90
2017-07-25T15:57:34.807Z,12.90
2017-07-25T16:00:02.331Z,13.10
2017-07-25T16:02:29.827Z,13.10
2017-07-25T16:04:57.322Z,13.10
2017-07-25T16:07:25.595Z,13.10
2017-07-25T16:09:53.859Z,13.20
2017-07-25T16:12:21.375Z,13.10
2017-07-25T16:14:48.878Z,13.10
2017-07-25T16:17:17.161Z,13.20
2017-07-25T16:19:45.435Z,13.00
2017-07-25T16:22:13.714Z,13.10
2017-07-25T16:24:41.979Z,13.20
2017-07-25T16:27:09.487Z,13.20
2017-07-25T16:29:36.983Z,13.20
2017-07-25T16:32:04.498Z,13.20
2017-07-25T16:34:31.995Z,13.20
2017-07-25T16:36:59.526Z,13.10
2017-07-25T16:39:27.027Z,13.20
2017-07-25T16:41:54.523Z,12.90
2017-07-25T16:44:22.035Z,12.80
2017-07-25T16:46:49.533Z,12.80
2017-07-25T16:49:17.038Z,12.80
2017-07-25T16:51:44.538Z,12.60
2017-07-25T16:54:12.821Z,12.70
2017-07-25T16:56:40.334Z,12.60
2017-07-25T16:59:07.846Z,12.60
2017-07-25T17:01:35.351Z,12.50
2017-07-25T17:04:02.894Z,12.50
2017-07-25T17:06:30.420Z,12.50
2017-07-25T17:08:57.922Z,12.60
2017-07-25T17:11:25.436Z,12.40
2017-07-25T17:13:52.931Z,12.30
2017-07-25T17:16:20.443Z,12.40
2017-07-25T17:18:47.939Z,12.30
2017-07-25T17:21:15.455Z,12.40
2017-07-25T17:23:42.985Z,12.30
2017-07-25T17:26:10.790Z,12.50
2017-07-25T17:28:38.293Z,12.40
2017-07-25T17:31:05.806Z,12.40
2017-07-25T17:33:33.307Z,12.40
2017-07-25T17:36:00.827Z,12.40
2017-07-25T17:38:28.322Z,12.40
2017-07-25T17:40:55.814Z,12.60
2017-07-25T17:43:24.094Z,12.60
2017-07-25T17:45:52.354Z,12.60
2017-07-25T17:48:19.862Z,12.60
2017-07-25T17:50:47.354Z,12.40
2017-07-25T17:53:14.864Z,12.50
2017-07-25T17:55:42.427Z,12.50
2017-07-25T17:58:09.943Z,12.50
2017-07-25T18:00:37.438Z,12.50
2017-07-25T18:03:04.971Z,12.50
2017-07-25T18:05:33.234Z,12.30
2017-07-25T18:08:01.221Z,12.30
2017-07-25T18:10:29.523Z,12.30
2017-07-25T18:12:57.075Z,12.30
2017-07-25T18:15:24.594Z,12.30
2017-07-25T18:17:52.091Z,12.30
2017-07-25T18:20:19.615Z,12.40
2017-07-25T18:22:47.112Z,12.30
2017-07-25T18:25:14.632Z,12.10
2017-07-25T18:27:42.153Z,12.00
2017-07-25T18:30:09.691Z,12.00
2017-07-25T18:32:37.191Z,12.00
2017-07-25T18:35:04.695Z,12.00
2017-07-25T18:37:32.225Z,12.00
2017-07-25T18:39:59.735Z,12.00
2017-07-25T18:42:27.247Z,12.00
2017-07-25T18:44:54.755Z,12.00
2017-07-25T18:47:22.283Z,12.00
2017-07-25T18:49:49.787Z,12.00
2017-07-25T18:52:17.340Z,12.00
2017-07-25T18:54:44.838Z,12.00
2017-07-25T18:57:12.347Z,12.00
2017-07-25T18:59:39.872Z,11.90
2017-07-25T19:02:07.971Z,11.90
2017-07-25T19:04:35.486Z,11.90
2017-07-25T19:07:03.756Z,12.00
2017-07-25T19:09:32.039Z,12.00
2017-07-25T19:11:59.542Z,11.90
2017-07-25T19:14:27.083Z,12.00
2017-07-25T19:16:54.581Z,11.90
2017-07-25T19:19:22.078Z,11.90
2017-07-25T19:21:49.591Z,12.00
2017-07-25T19:24:17.095Z,12.00
2017-07-25T19:26:44.727Z,11.90
2017-07-25T19:29:12.375Z,12.00
2017-07-25T19:31:42.092Z,11.90
2017-07-25T19:34:10.502Z,11.90
2017-07-25T19:36:38.808Z,11.90
2017-07-25T19:39:06.320Z,11.90
2017-07-25T19:41:33.829Z,11.90
2017-07-25T19:44:01.352Z,12.00
2017-07-25T19:46:30.512Z,12.00
2017-07-25T19:48:58.056Z,12.00
2017-07-25T19:51:25.559Z,12.00
2017-07-25T19:53:53.847Z,11.90
2017-07-25T19:56:22.121Z,11.90
2017-07-25T19:58:50.387Z,11.90
2017-07-25T20:01:18.680Z,11.90
2017-07-25T20:03:46.946Z,11.90
2017-07-25T20:06:15.235Z,11.90
2017-07-25T20:08:42.764Z,11.80
2017-07-25T20:11:11.083Z,11.80
2017-07-25T20:13:38.583Z,11.80
2017-07-25T20:16:06.122Z,11.90
2017-07-25T20:18:33.618Z,11.90
2017-07-25T20:21:01.156Z,11.90
2017-07-25T20:23:28.676Z,11.80
2017-07-25T20:25:56.181Z,11.90
2017-07-25T20:28:23.704Z,11.80
2017-07-25T20:30:51.221Z,11.90
2017-07-25T20:33:19.510Z,11.80
2017-07-25T20:35:47.014Z,11.80
2017-07-25T20:38:14.535Z,11.80
2017-07-25T20:40:42.035Z,11.90
2017-07-25T20:43:09.563Z,11.90
2017-07-25T20:45:37.070Z,11.90
2017-07-25T20:48:04.606Z,11.90
2017-07-25T20:50:32.109Z,11.90
2017-07-25T20:52:59.651Z,11.90
2017-07-25T20:55:27.155Z,11.90
2017-07-25T20:57:54.662Z,11.90
2017-07-25T21:00:22.183Z,11.90
2017-07-25T21:02:49.686Z,11.80
2017-07-25T21:05:17.199Z,11.80
2017-07-25T21:07:44.698Z,11.90
2017-07-25T21:10:12.222Z,11.90
2017-07-25T21:12:39.728Z,11.90
2017-07-25T21:15:08.019Z,11.80
2017-07-25T21:17:36.282Z,11.80
2017-07-25T21:20:03.855Z,11.80
2017-07-25T21:22:31.370Z,11.90
2017-07-25T21:24:58.874Z,11.90
2017-07-25T21:27:26.395Z,11.90
2017-07-25T21:29:53.898Z,11.80
2017-07-25T21:32:21.415Z,11.80
2017-07-25T21:34:48.924Z,11.80
2017-07-25T21:37:16.434Z,11.80
2017-07-25T21:39:43.938Z,11.80
2017-07-25T21:42:11.454Z,11.80
2017-07-25T21:44:39.722Z,11.70
2017-07-25T21:47:07.338Z,11.70
2017-07-25T21:49:34.835Z,11.70
2017-07-25T21:52:05.247Z,11.80
2017-07-25T21:54:32.764Z,11.70
2017-07-25T21:57:00.632Z,11.80
2017-07-25T21:59:28.154Z,11.80
2017-07-25T22:02:07.415Z,11.90
2017-07-25T22:04:46.931Z,11.90
2017-07-25T22:07:14.435Z,11.90
2017-07-25T22:09:41.971Z,11.80
2017-07-25T22:12:09.467Z,11.80
2017-07-25T22:14:36.983Z,11.80
2017-07-25T22:17:04.499Z,11.80
2017-07-25T22:19:32.034Z,11.90
2017-07-25T22:21:59.563Z,11.80
2017-07-25T22:24:27.117Z,11.80
2017-07-25T22:26:54.954Z,11.90
2017-07-25T22:29:22.457Z,11.80
2017-07-25T22:31:49.981Z,11.90
2017-07-25T22:34:18.256Z,11.90
2017-07-25T22:36:45.771Z,11.80
2017-07-25T22:39:13.271Z,11.90
2017-07-25T22:41:40.802Z,11.90
2017-07-25T22:44:08.303Z,11.90
2017-07-25T22:46:36.600Z,11.90
2017-07-25T22:49:04.136Z,11.90
2017-07-25T22:51:31.634Z,11.90
2017-07-25T22:53:59.166Z,11.90
2017-07-25T22:56:26.666Z,11.80
2017-07-25T22:58:54.181Z,11.90
2017-07-25T23:01:21.685Z,11.90
2017-07-25T23:03:49.207Z,12.00
2017-07-25T23:06:16.707Z,11.90
2017-07-25T23:08:44.224Z,11.90
2017-07-25T23:11:11.740Z,11.80
2017-07-25T23:13:39.262Z,11.90
2017-07-25T23:16:06.765Z,11.80
2017-07-25T23:18:35.041Z,11.90
2017-07-25T23:21:02.559Z,11.80
2017-07-25T23:23:30.062Z,11.80
2017-07-25T23:25:58.347Z,11.90
2017-07-25T23:28:26.615Z,11.90
2017-07-25T23:30:54.898Z,11.90
2017-07-25T23:33:23.197Z,11.90
2017-07-25T23:35:50.726Z,11.90
2017-07-25T23:38:19.024Z,11.80
2017-07-25T23:40:46.544Z,11.80
2017-07-25T23:43:14.047Z,11.80
2017-07-25T23:45:41.554Z,11.80
2017-07-25T23:48:09.066Z,11.80
2017-07-25T23:50:36.575Z,11.80
2017-07-25T23:53:04.096Z,11.80
2017-07-25T23:55:31.603Z,11.80
2017-07-25T23:57:59.890Z,11.70
